Flight Track Log - Related Links

Times and Time Zones

All times are in EDT time to prevent confusion due to time zone crossing. See the UAL587 flight status page for this flight to view local times or setup timezone preferences in your user account.

Time Position Orientation Groundspeed Altitude Reporting Facility
EDT Latitude Longitude Course Direction KTS MPH feet Rate Location/Type
Mon 09:08:15 PM 39.8358 -104.6619 277° West  Level FlightAware Approximate
Mon 09:09:38 PM 39.8500 -104.8167 258° West 243 280 8,000  Level Denver TRACON
Mon 09:10:38 PM 39.8333 -104.9167 258° West 272 313 10,100 2,105 Climbing Denver TRACON
Mon 09:11:32 PM 39.8167 -105.0167 250° West 321 369 12,000 2,386 Climbing Denver TRACON
Mon 09:12:06 PM 39.8039 -105.0622 258° West 324 373 13,600 2,681 Climbing Denver Center
Mon 09:13:06 PM 39.7844 -105.1789 257° West 336 387 16,200 2,900 Climbing Denver Center
Mon 09:14:06 PM 39.7628 -105.2981 257° West 341 392 19,400 2,300 Climbing Denver Center
Mon 09:15:06 PM 39.7392 -105.4308 257° West 336 387 20,800 1,600 Climbing Denver Center
Mon 09:16:06 PM 39.7153 -105.5664 256° West 363 418 22,600 1,850 Climbing Denver Center
Mon 09:17:06 PM 39.6892 -105.7014 255° West 382 440 24,500 1,850 Climbing Denver Center
Mon 09:18:06 PM 39.6586 -105.8447 256° West 397 457 26,300 1,700 Climbing Denver Center
Mon 09:19:06 PM 39.6303 -105.9881 254° West 415 478 27,900 1,550 Climbing Denver Center
Mon 09:20:06 PM 39.5972 -106.1364 258° West 420 483 29,400 1,450 Climbing Denver Center
Mon 09:21:06 PM 39.5728 -106.2875 254° West 420 483 30,800 1,650 Climbing Denver Center
Mon 09:22:06 PM 39.5394 -106.4356 254° West 426 490 32,700 1,550 Climbing Denver Center
Mon 09:23:06 PM 39.5103 -106.5675 254° West 432 497 33,900 1,200 Climbing Denver Center
Mon 09:24:06 PM 39.4744 -106.7289 254° West 432 497 35,100 1,050 Climbing Denver Center
Mon 09:25:06 PM 39.4428 -106.8711 256° West 427 491 36,000 450 Climbing Denver Center
Mon 09:26:06 PM 39.4172 -107.0028 256° West 422 486 36,000  Level Denver Center
Mon 09:27:06 PM 39.3850 -107.1636 257° West 417 480 36,000  Level Denver Center
Mon 09:28:06 PM 39.3592 -107.3111 255° West 417 480 36,000  Level Denver Center
Mon 09:29:06 PM 39.3286 -107.4556 256° West 417 480 36,000  Level Denver Center
Mon 09:30:06 PM 39.3025 -107.5894 256° West 422 486 36,000  Level Denver Center
Mon 09:31:06 PM 39.2739 -107.7339 256° West 422 486 36,000  Level Denver Center
Mon 09:32:06 PM 39.2428 -107.8942 256° West 422 486 36,000  Level Denver Center
Mon 09:33:06 PM 39.2136 -108.0408 254° West 422 486 36,000  Level Denver Center
Mon 09:34:06 PM 39.1847 -108.1689 256° West 422 486 36,000  Level Denver Center
Mon 09:35:06 PM 39.1553 -108.3153 255° West 422 486 36,000  Level Denver Center
Mon 09:36:06 PM 39.1236 -108.4725 255° West 417 480 36,000  Level Denver Center
Mon 09:37:06 PM 39.0939 -108.6161 256° West 417 480 36,000  Level Denver Center
Mon 09:38:06 PM 39.0661 -108.7569 257° West 412 474 36,000  Level Denver Center
Mon 09:39:06 PM 39.0425 -108.8872 260° West 412 474 36,000  Level Denver Center
Mon 09:40:06 PM 39.0203 -109.0442 260° West 412 474 36,000  Level Denver Center
Mon 09:41:06 PM 39.0006 -109.1850 259° West 407 468 36,000  Level Denver Center
Mon 09:42:06 PM 38.9781 -109.3311 260° West 412 474 36,000  Level Denver Center
Mon 09:42:52 PM 38.9639 -109.4369 259° West 408 470 36,000  Level Salt Lake Center
Mon 09:43:54 PM 38.9431 -109.5758 259° West 411 473 36,000  Level Salt Lake Center
Mon 09:44:55 PM 38.9175 -109.7392 259° West 416 479 36,000  Level Salt Lake Center
Mon 09:45:57 PM 38.8958 -109.8817 259° West 422 486 36,000  Level Salt Lake Center
Mon 09:46:59 PM 38.8742 -110.0239 258° West 423 487 36,000  Level Salt Lake Center
Mon 09:48:00 PM 38.8472 -110.1911 259° West 427 491 36,000  Level Salt Lake Center
Mon 09:49:02 PM 38.8244 -110.3344 259° West 428 493 36,000  Level Salt Lake Center
Mon 09:50:03 PM 38.7989 -110.5019 265° West 429 494 36,000  Level Salt Lake Center
Mon 09:51:05 PM 38.7889 -110.6431 268° West 421 484 36,000  Level Salt Lake Center
Mon 09:52:07 PM 38.7842 -110.8056 267° West 409 471 36,000  Level Salt Lake Center
Mon 09:53:08 PM 38.7783 -110.9392 267° West 405 466 36,000  Level Salt Lake Center
Mon 09:54:10 PM 38.7708 -111.0997 267° West 403 464 36,000  Level Salt Lake Center
Mon 09:55:11 PM 38.7644 -111.2436 266° West 401 461 36,000  Level Salt Lake Center
Mon 09:56:13 PM 38.7567 -111.3908 266° West 406 467 36,000  Level Salt Lake Center
Mon 09:57:14 PM 38.7494 -111.5397 267° West 410 472 36,000  Level Salt Lake Center
Mon 09:58:16 PM 38.7431 -111.6892 266° West 414 476 36,000  Level Salt Lake Center
Mon 09:59:18 PM 38.7347 -111.8378 266° West 414 476 36,000  Level Salt Lake Center
Mon 10:00:19 PM 38.7267 -111.9836 266° West 409 471 36,000  Level Salt Lake Center
Mon 10:01:21 PM 38.7186 -112.1281 266° West 405 466 36,000  Level Salt Lake Center
Mon 10:02:23 PM 38.7100 -112.2731 266° West 404 465 36,000  Level Salt Lake Center
Mon 10:03:24 PM 38.7011 -112.4178 266° West 403 464 36,000  Level Salt Lake Center
Mon 10:04:26 PM 38.6925 -112.5611 265° West 401 461 36,000  Level Salt Lake Center
Mon 10:05:27 PM 38.6836 -112.7039 266° West 399 459 36,000  Level Salt Lake Center
Mon 10:06:29 PM 38.6750 -112.8489 265° West 400 460 36,000  Level Salt Lake Center
Mon 10:07:31 PM 38.6656 -112.9908 266° West 400 460 36,000  Level Salt Lake Center
Mon 10:08:32 PM 38.6572 -113.1344 265° West 399 459 36,000  Level Salt Lake Center
Mon 10:09:34 PM 38.6472 -113.2794 265° West 402 463 36,000  Level Salt Lake Center
Mon 10:10:36 PM 38.6378 -113.4278 265° West 408 470 36,000  Level Salt Lake Center
Mon 10:11:37 PM 38.6267 -113.6014 265° West 406 467 36,000  Level Salt Lake Center
Mon 10:12:39 PM 38.6169 -113.7464 265° West 404 465 36,000  Level Salt Lake Center
Mon 10:13:41 PM 38.6069 -113.8908 265° West 404 465 36,000  Level Salt Lake Center
Mon 10:14:42 PM 38.5969 -114.0347 265° West 402 463 36,000 537 Level Salt Lake Center
Mon 10:15:44 PM 38.5861 -114.1792 265° West 403 464 37,100 968 Climbing Salt Lake Center
Mon 10:16:46 PM 38.5761 -114.3219 264° West 401 461 38,000 435 Climbing Salt Lake Center
Mon 10:17:48 PM 38.5642 -114.4658 265° West 401 461 38,000  Level Salt Lake Center
Mon 10:18:49 PM 38.5544 -114.6069 264° West 397 457 38,000  Level Salt Lake Center
Mon 10:19:51 PM 38.5428 -114.7508 265° West 399 459 38,000  Level Salt Lake Center
Mon 10:20:53 PM 38.5322 -114.8983 264° West 406 467 38,000  Level Salt Lake Center
Mon 10:21:54 PM 38.5203 -115.0467 264° West 412 474 38,000  Level Salt Lake Center
Mon 10:22:56 PM 38.5078 -115.1922 264° West 410 472 38,000  Level Salt Lake Center
Mon 10:23:58 PM 38.4961 -115.3364 264° West 406 467 38,000  Level Salt Lake Center
Mon 10:25:00 PM 38.4822 -115.5036 263° West 402 463 38,000  Level Salt Lake Center
Mon 10:26:02 PM 38.4694 -115.6442 264° West 400 460 38,000  Level Salt Lake Center
Mon 10:27:04 PM 38.4583 -115.7833 263° West 396 456 38,000  Level Salt Lake Center
Mon 10:28:05 PM 38.4458 -115.9211 264° West 393 452 38,000  Level Salt Lake Center
Mon 10:29:07 PM 38.4336 -116.0589 263° West 392 451 38,000  Level Salt Lake Center
Mon 10:30:09 PM 38.4206 -116.1975 252° West 393 452 38,000  Level Salt Lake Center
Mon 10:31:11 PM 38.3858 -116.3333 251° West 400 460 38,000  Level Salt Lake Center
Mon 10:32:13 PM 38.3433 -116.4928 252° West 399 459 38,000  Level Salt Lake Center
Mon 10:33:15 PM 38.3081 -116.6269 251° West 399 459 38,000  Level Salt Lake Center
Mon 10:34:17 PM 38.2722 -116.7622 252° West 401 461 38,000  Level Salt Lake Center
Mon 10:35:18 PM 38.2375 -116.8958 252° West 400 460 38,000  Level Salt Lake Center
Mon 10:36:20 PM 38.2022 -117.0297 251° West 400 460 38,000  Level Salt Lake Center
Mon 10:37:22 PM 38.1642 -117.1717 251° West 399 459 38,000  Level Salt Lake Center
Mon 10:38:24 PM 38.1250 -117.3167 252° West 404 465 38,000  Level Salt Lake Center
Mon 10:39:15 PM 38.0953 -117.4319 251° West 418 481 38,000  Level Oakland Center
Mon 10:40:15 PM 38.0614 -117.5575 252° West 411 473 38,000  Level Oakland Center
Mon 10:41:16 PM 38.0278 -117.6883 254° West 400 460 38,000  Level Oakland Center
Mon 10:42:15 PM 37.9981 -117.8214 263° West 394 453 38,000  Level Oakland Center
Mon 10:43:16 PM 37.9847 -117.9536 263° West 389 448 38,000  Level Oakland Center
Mon 10:44:15 PM 37.9714 -118.0858 264° West 389 448 38,000  Level Oakland Center
Mon 10:45:16 PM 37.9600 -118.2208 262° West 389 448 38,000  Level Oakland Center
Mon 10:46:15 PM 37.9461 -118.3478 263° West 389 448 38,000  Level Oakland Center
Mon 10:47:15 PM 37.9325 -118.4797 261° West 384 442 38,000  Level Oakland Center
Mon 10:48:15 PM 37.9164 -118.6119 262° West 384 442 38,000  Level Oakland Center
Mon 10:49:15 PM 37.9022 -118.7414 262° West 384 442 38,000  Level Oakland Center
Mon 10:50:15 PM 37.8881 -118.8736 263° West 384 442 38,000  Level Oakland Center
Mon 10:51:15 PM 37.8758 -119.0081 260° West 389 448 38,000  Level Oakland Center
Mon 10:52:15 PM 37.8569 -119.1453 260° West 384 442 38,000  Level Oakland Center
Mon 10:53:15 PM 37.8383 -119.2800 261° West 384 442 38,000  Level Oakland Center
Mon 10:54:16 PM 37.8233 -119.4039 262° West 390 449 38,000  Level Oakland Center
Mon 10:55:15 PM 37.8083 -119.5408 260° West 396 456 38,000  Level Oakland Center
Mon 10:56:15 PM 37.7892 -119.6806 263° West 396 456 38,000 -397 Level Oakland Center
Mon 10:57:16 PM 37.7758 -119.8175 260° West 396 456 37,200 -992 Descending Oakland Center
Mon 10:58:16 PM 37.7564 -119.9542 260° West 396 456 36,000 -1,210 Descending Oakland Center
Mon 10:59:15 PM 37.7367 -120.0911 260° West 401 461 34,800 -1,462 Descending Oakland Center
Mon 11:00:15 PM 37.7167 -120.2306 261° West 401 461 33,100 -2,000 Descending Oakland Center
Mon 11:01:15 PM 37.6986 -120.3697 262° West 406 467 30,800 -2,231 Descending Oakland Center
Mon 11:02:16 PM 37.6828 -120.5064 261° West 406 467 28,600 -2,050 Descending Oakland Center
Mon 11:03:15 PM 37.6664 -120.6378 261° West 399 459 26,700 -1,966 Descending Oakland Center
Mon 11:04:15 PM 37.6500 -120.7689 255° West 392 451 24,700 -2,217 Descending Oakland Center
Mon 11:04:47 PM 37.6333 -120.8500 270° West 376 433 23,300 -2,207 Descending Northern Cal TRACON
Mon 11:05:42 PM 37.6333 -120.9667 261° West 358 412 21,500 -2,083 Descending Northern Cal TRACON
Mon 11:06:48 PM 37.6167 -121.1000 260° West 352 405 19,100 -2,173 Descending Northern Cal TRACON
Mon 11:07:49 PM 37.6000 -121.2167 260° West 338 389 16,900 -2,083 Descending Northern Cal TRACON
Mon 11:08:49 PM 37.5833 -121.3333 258° West 326 375 14,900 -1,950 Descending Northern Cal TRACON
Mon 11:09:49 PM 37.5667 -121.4333 270° West 309 356 13,000 -1,785 Descending Northern Cal TRACON
Mon 11:10:50 PM 37.5667 -121.5500 258° West 305 351 11,300 -992 Descending Northern Cal TRACON
Mon 11:11:50 PM 37.5500 -121.6500 253° West 277 319 11,000 -470 Descending Northern Cal TRACON
Mon 11:12:45 PM 37.5333 -121.7167 247° West 251 289 10,400 -992 Descending Northern Cal TRACON
Mon 11:13:51 PM 37.5000 -121.8167 253° West 251 289 9,000 -1,000 Descending Northern Cal TRACON
Mon 11:14:51 PM 37.4833 -121.8833 288° West 227 261 8,300 -1,043 Descending Northern Cal TRACON
Mon 11:15:46 PM 37.5000 -121.9500 284° West 213 245 7,000 -835 Descending Northern Cal TRACON
Mon 11:16:46 PM 37.5167 -122.0333 293° West 209 241 6,700 -600 Descending Northern Cal TRACON
Mon 11:17:46 PM 37.5333 -122.0833 288° West 174 200 5,800 -1,289 Descending Northern Cal TRACON
Mon 11:18:47 PM 37.5500 -122.1500 293° West 172 198 4,100 -1,438 Descending Northern Cal TRACON
Mon 11:19:47 PM 37.5667 -122.2000 293° West 164 189 2,900 -1,143 Descending Northern Cal TRACON
Mon 11:20:53 PM 37.5833 -122.2500 270° West 148 170 1,700 -842 Descending Northern Cal TRACON
Mon 11:21:41 PM 37.5833 -122.2833 270° West 111 128 1,300 -500 Descending Northern Cal TRACON

Login

Don't have an account? Register now (free) for customized features, flight alerts, and more!